sensor_id;sensor_type;location;lat;lon;timestamp;P1;durP1;ratioP1;P2;durP2;ratioP2
19691;SDS011;42748;50.016;19.890;2023-02-01T00:00:01;14.73;;;8.03;;
19691;SDS011;42748;50.016;19.890;2023-02-01T00:02:30;15.17;;;8.03;;
19691;SDS011;42748;50.016;19.890;2023-02-01T00:04:57;14.47;;;8.13;;
19691;SDS011;42748;50.016;19.890;2023-02-01T00:07:24;18.93;;;8.30;;
19691;SDS011;42748;50.016;19.890;2023-02-01T00:09:51;14.77;;;7.93;;
19691;SDS011;42748;50.016;19.890;2023-02-01T00:12:18;14.87;;;7.60;;
19691;SDS011;42748;50.016;19.890;2023-02-01T00:14:46;13.93;;;8.27;;
19691;SDS011;42748;50.016;19.890;2023-02-01T00:17:14;13.50;;;7.20;;
19691;SDS011;42748;50.016;19.890;2023-02-01T00:19:42;13.90;;;7.00;;
19691;SDS011;42748;50.016;19.890;2023-02-01T00:22:09;13.30;;;5.00;;
19691;SDS011;42748;50.016;19.890;2023-02-01T00:24:36;11.23;;;5.10;;
19691;SDS011;42748;50.016;19.890;2023-02-01T00:27:03;11.43;;;6.90;;
19691;SDS011;42748;50.016;19.890;2023-02-01T00:29:30;11.67;;;5.87;;
19691;SDS011;42748;50.016;19.890;2023-02-01T00:31:57;11.00;;;6.50;;
19691;SDS011;42748;50.016;19.890;2023-02-01T00:34:24;9.83;;;5.90;;
19691;SDS011;42748;50.016;19.890;2023-02-01T00:36:52;13.43;;;5.90;;
19691;SDS011;42748;50.016;19.890;2023-02-01T00:39:19;12.73;;;7.03;;
19691;SDS011;42748;50.016;19.890;2023-02-01T00:41:46;7.67;;;4.17;;
19691;SDS011;42748;50.016;19.890;2023-02-01T00:44:14;11.43;;;6.33;;
19691;SDS011;42748;50.016;19.890;2023-02-01T00:46:41;13.27;;;6.70;;
19691;SDS011;42748;50.016;19.890;2023-02-01T00:49:08;12.93;;;6.40;;
19691;SDS011;42748;50.016;19.890;2023-02-01T00:51:36;11.40;;;5.80;;
19691;SDS011;42748;50.016;19.890;2023-02-01T00:54:03;10.73;;;5.60;;
19691;SDS011;42748;50.016;19.890;2023-02-01T00:56:30;10.43;;;6.40;;
19691;SDS011;42748;50.016;19.890;2023-02-01T00:58:58;9.97;;;5.63;;
19691;SDS011;42748;50.016;19.890;2023-02-01T01:01:26;11.07;;;6.10;;
19691;SDS011;42748;50.016;19.890;2023-02-01T01:03:55;11.27;;;6.33;;
19691;SDS011;42748;50.016;19.890;2023-02-01T01:06:27;10.70;;;5.80;;
19691;SDS011;42748;50.016;19.890;2023-02-01T01:08:57;10.67;;;5.73;;
19691;SDS011;42748;50.016;19.890;2023-02-01T01:11:26;11.23;;;6.00;;
19691;SDS011;42748;50.016;19.890;2023-02-01T01:13:56;11.40;;;6.20;;
19691;SDS011;42748;50.016;19.890;2023-02-01T01:16:25;10.10;;;6.30;;
19691;SDS011;42748;50.016;19.890;2023-02-01T01:18:54;10.87;;;5.47;;
19691;SDS011;42748;50.016;19.890;2023-02-01T01:21:23;10.37;;;5.93;;
19691;SDS011;42748;50.016;19.890;2023-02-01T01:23:51;8.20;;;4.23;;
19691;SDS011;42748;50.016;19.890;2023-02-01T01:26:22;11.23;;;6.00;;
19691;SDS011;42748;50.016;19.890;2023-02-01T01:28:54;10.37;;;5.70;;
19691;SDS011;42748;50.016;19.890;2023-02-01T01:31:23;9.17;;;5.63;;
19691;SDS011;42748;50.016;19.890;2023-02-01T01:33:52;11.63;;;5.23;;
19691;SDS011;42748;50.016;19.890;2023-02-01T01:36:21;10.90;;;5.60;;
19691;SDS011;42748;50.016;19.890;2023-02-01T01:38:49;10.50;;;5.70;;
19691;SDS011;42748;50.016;19.890;2023-02-01T01:41:19;15.00;;;6.10;;
19691;SDS011;42748;50.016;19.890;2023-02-01T01:49:13;12.17;;;6.97;;
19691;SDS011;42748;50.016;19.890;2023-02-01T01:51:47;14.60;;;6.63;;
19691;SDS011;42748;50.016;19.890;2023-02-01T01:54:29;12.50;;;7.23;;
19691;SDS011;42748;50.016;19.890;2023-02-01T01:57:01;9.93;;;5.53;;
19691;SDS011;42748;50.016;19.890;2023-02-01T01:59:33;14.17;;;7.30;;
19691;SDS011;42748;50.016;19.890;2023-02-01T02:02:04;14.80;;;6.97;;
19691;SDS011;42748;50.016;19.890;2023-02-01T02:04:32;10.77;;;4.57;;
19691;SDS011;42748;50.016;19.890;2023-02-01T02:07:02;12.83;;;6.37;;
19691;SDS011;42748;50.016;19.890;2023-02-01T02:09:34;11.83;;;5.87;;
19691;SDS011;42748;50.016;19.890;2023-02-01T02:12:01;11.60;;;6.03;;
19691;SDS011;42748;50.016;19.890;2023-02-01T02:14:29;10.33;;;5.17;;
19691;SDS011;42748;50.016;19.890;2023-02-01T02:17:15;10.43;;;4.70;;
19691;SDS011;42748;50.016;19.890;2023-02-01T02:20:09;10.40;;;4.53;;
19691;SDS011;42748;50.016;19.890;2023-02-01T02:22:51;10.60;;;4.53;;
19691;SDS011;42748;50.016;19.890;2023-02-01T02:34:20;7.80;;;2.27;;
19691;SDS011;42748;50.016;19.890;2023-02-01T02:39:54;7.07;;;1.97;;
19691;SDS011;42748;50.016;19.890;2023-02-01T02:42:29;7.13;;;1.97;;
19691;SDS011;42748;50.016;19.890;2023-02-01T02:45:27;3.50;;;1.40;;
19691;SDS011;42748;50.016;19.890;2023-02-01T02:51:10;5.97;;;1.60;;
19691;SDS011;42748;50.016;19.890;2023-02-01T02:54:02;6.13;;;1.50;;
19691;SDS011;42748;50.016;19.890;2023-02-01T02:56:51;6.10;;;1.97;;
19691;SDS011;42748;50.016;19.890;2023-02-01T02:59:40;2.87;;;0.90;;
19691;SDS011;42748;50.016;19.890;2023-02-01T03:02:31;8.77;;;1.70;;
19691;SDS011;42748;50.016;19.890;2023-02-01T03:05:18;6.97;;;1.70;;
19691;SDS011;42748;50.016;19.890;2023-02-01T03:08:01;7.50;;;1.97;;
19691;SDS011;42748;50.016;19.890;2023-02-01T03:13:08;7.33;;;1.73;;
19691;SDS011;42748;50.016;19.890;2023-02-01T03:21:11;4.67;;;1.60;;
19691;SDS011;42748;50.016;19.890;2023-02-01T03:23:42;10.63;;;1.87;;
19691;SDS011;42748;50.016;19.890;2023-02-01T03:26:13;9.77;;;2.23;;
19691;SDS011;42748;50.016;19.890;2023-02-01T03:28:45;7.00;;;1.87;;
19691;SDS011;42748;50.016;19.890;2023-02-01T03:31:18;6.53;;;2.10;;
19691;SDS011;42748;50.016;19.890;2023-02-01T03:33:46;8.33;;;1.83;;
19691;SDS011;42748;50.016;19.890;2023-02-01T03:41:50;6.37;;;1.90;;
19691;SDS011;42748;50.016;19.890;2023-02-01T03:44:21;6.10;;;2.47;;
19691;SDS011;42748;50.016;19.890;2023-02-01T03:47:03;6.70;;;1.93;;
19691;SDS011;42748;50.016;19.890;2023-02-01T03:49:39;12.13;;;2.50;;
19691;SDS011;42748;50.016;19.890;2023-02-01T03:52:11;7.33;;;2.20;;
19691;SDS011;42748;50.016;19.890;2023-02-01T03:54:46;8.30;;;2.07;;
19691;SDS011;42748;50.016;19.890;2023-02-01T03:57:16;5.23;;;2.47;;
19691;SDS011;42748;50.016;19.890;2023-02-01T03:59:50;7.97;;;3.00;;
19691;SDS011;42748;50.016;19.890;2023-02-01T04:02:17;5.90;;;2.03;;
19691;SDS011;42748;50.016;19.890;2023-02-01T04:04:45;6.57;;;2.30;;
19691;SDS011;42748;50.016;19.890;2023-02-01T04:07:15;9.13;;;2.67;;
19691;SDS011;42748;50.016;19.890;2023-02-01T04:09:43;6.70;;;2.30;;
19691;SDS011;42748;50.016;19.890;2023-02-01T04:12:10;6.20;;;2.10;;
19691;SDS011;42748;50.016;19.890;2023-02-01T04:14:37;7.47;;;2.57;;
19691;SDS011;42748;50.016;19.890;2023-02-01T04:17:04;5.93;;;2.50;;
19691;SDS011;42748;50.016;19.890;2023-02-01T04:19:31;7.33;;;2.77;;
19691;SDS011;42748;50.016;19.890;2023-02-01T04:21:58;10.63;;;3.27;;
19691;SDS011;42748;50.016;19.890;2023-02-01T04:24:26;8.60;;;3.07;;
19691;SDS011;42748;50.016;19.890;2023-02-01T04:26:53;8.83;;;2.87;;
19691;SDS011;42748;50.016;19.890;2023-02-01T04:29:20;7.53;;;3.67;;
19691;SDS011;42748;50.016;19.890;2023-02-01T04:31:47;9.83;;;3.70;;
19691;SDS011;42748;50.016;19.890;2023-02-01T04:34:16;9.27;;;3.90;;
19691;SDS011;42748;50.016;19.890;2023-02-01T04:36:43;10.17;;;3.57;;
19691;SDS011;42748;50.016;19.890;2023-02-01T04:39:12;10.17;;;4.13;;
19691;SDS011;42748;50.016;19.890;2023-02-01T04:41:39;7.83;;;2.97;;
19691;SDS011;42748;50.016;19.890;2023-02-01T04:44:09;8.77;;;3.33;;
19691;SDS011;42748;50.016;19.890;2023-02-01T04:46:41;11.27;;;3.53;;
19691;SDS011;42748;50.016;19.890;2023-02-01T04:49:12;9.60;;;3.60;;
19691;SDS011;42748;50.016;19.890;2023-02-01T04:51:40;7.20;;;3.27;;
19691;SDS011;42748;50.016;19.890;2023-02-01T04:54:07;7.53;;;3.37;;
19691;SDS011;42748;50.016;19.890;2023-02-01T04:56:37;6.50;;;3.00;;
19691;SDS011;42748;50.016;19.890;2023-02-01T04:59:05;7.63;;;3.33;;
19691;SDS011;42748;50.016;19.890;2023-02-01T05:01:32;10.63;;;3.63;;
19691;SDS011;42748;50.016;19.890;2023-02-01T05:03:59;8.50;;;3.17;;
19691;SDS011;42748;50.016;19.890;2023-02-01T05:06:26;7.43;;;3.63;;
19691;SDS011;42748;50.016;19.890;2023-02-01T05:08:54;9.13;;;3.70;;
19691;SDS011;42748;50.016;19.890;2023-02-01T05:11:21;10.67;;;3.67;;
19691;SDS011;42748;50.016;19.890;2023-02-01T05:14:07;8.57;;;3.70;;
19691;SDS011;42748;50.016;19.890;2023-02-01T05:16:34;9.03;;;5.00;;
19691;SDS011;42748;50.016;19.890;2023-02-01T05:19:01;5.90;;;3.33;;
19691;SDS011;42748;50.016;19.890;2023-02-01T05:21:29;6.97;;;3.90;;
19691;SDS011;42748;50.016;19.890;2023-02-01T05:23:56;9.77;;;4.77;;
19691;SDS011;42748;50.016;19.890;2023-02-01T05:26:36;11.70;;;5.00;;
19691;SDS011;42748;50.016;19.890;2023-02-01T05:29:04;9.80;;;4.90;;
19691;SDS011;42748;50.016;19.890;2023-02-01T05:31:32;12.63;;;4.90;;
19691;SDS011;42748;50.016;19.890;2023-02-01T05:34:00;12.47;;;5.57;;
19691;SDS011;42748;50.016;19.890;2023-02-01T05:36:27;12.23;;;5.50;;
19691;SDS011;42748;50.016;19.890;2023-02-01T05:38:54;11.17;;;5.40;;
19691;SDS011;42748;50.016;19.890;2023-02-01T05:41:21;10.97;;;4.90;;
19691;SDS011;42748;50.016;19.890;2023-02-01T05:43:49;8.87;;;4.90;;
19691;SDS011;42748;50.016;19.890;2023-02-01T05:46:16;9.17;;;4.67;;
19691;SDS011;42748;50.016;19.890;2023-02-01T05:48:43;10.73;;;4.73;;
19691;SDS011;42748;50.016;19.890;2023-02-01T05:51:10;8.33;;;4.47;;
19691;SDS011;42748;50.016;19.890;2023-02-01T05:53:37;9.63;;;4.07;;
19691;SDS011;42748;50.016;19.890;2023-02-01T05:56:05;10.43;;;4.23;;
19691;SDS011;42748;50.016;19.890;2023-02-01T05:58:32;9.87;;;4.00;;
19691;SDS011;42748;50.016;19.890;2023-02-01T06:01:00;11.50;;;4.23;;
19691;SDS011;42748;50.016;19.890;2023-02-01T06:03:27;12.77;;;4.30;;
19691;SDS011;42748;50.016;19.890;2023-02-01T06:05:55;15.80;;;4.70;;
19691;SDS011;42748;50.016;19.890;2023-02-01T06:08:22;12.20;;;4.23;;
19691;SDS011;42748;50.016;19.890;2023-02-01T06:13:57;12.03;;;4.70;;
19691;SDS011;42748;50.016;19.890;2023-02-01T06:16:25;10.07;;;3.97;;
19691;SDS011;42748;50.016;19.890;2023-02-01T06:18:52;8.57;;;3.53;;
19691;SDS011;42748;50.016;19.890;2023-02-01T06:21:20;8.00;;;3.40;;
19691;SDS011;42748;50.016;19.890;2023-02-01T06:23:51;10.00;;;3.80;;
19691;SDS011;42748;50.016;19.890;2023-02-01T06:26:19;11.60;;;3.90;;
19691;SDS011;42748;50.016;19.890;2023-02-01T06:28:46;8.77;;;3.07;;
19691;SDS011;42748;50.016;19.890;2023-02-01T06:31:13;9.33;;;3.40;;
19691;SDS011;42748;50.016;19.890;2023-02-01T06:33:41;10.90;;;3.27;;
19691;SDS011;42748;50.016;19.890;2023-02-01T06:36:09;14.20;;;3.40;;
19691;SDS011;42748;50.016;19.890;2023-02-01T06:38:38;8.80;;;3.50;;
19691;SDS011;42748;50.016;19.890;2023-02-01T06:41:06;9.00;;;3.30;;
19691;SDS011;42748;50.016;19.890;2023-02-01T06:43:34;11.20;;;3.60;;
19691;SDS011;42748;50.016;19.890;2023-02-01T06:46:02;13.90;;;3.27;;
19691;SDS011;42748;50.016;19.890;2023-02-01T06:48:31;12.43;;;2.80;;
19691;SDS011;42748;50.016;19.890;2023-02-01T06:50:58;12.50;;;3.60;;
19691;SDS011;42748;50.016;19.890;2023-02-01T06:53:26;12.07;;;3.10;;
19691;SDS011;42748;50.016;19.890;2023-02-01T06:55:57;11.97;;;3.70;;
19691;SDS011;42748;50.016;19.890;2023-02-01T06:58:29;12.17;;;3.60;;
19691;SDS011;42748;50.016;19.890;2023-02-01T07:00:57;7.90;;;2.40;;
19691;SDS011;42748;50.016;19.890;2023-02-01T07:03:30;12.83;;;3.30;;
19691;SDS011;42748;50.016;19.890;2023-02-01T07:05:57;11.20;;;2.60;;
19691;SDS011;42748;50.016;19.890;2023-02-01T07:08:27;10.40;;;3.07;;
19691;SDS011;42748;50.016;19.890;2023-02-01T07:10:55;15.67;;;3.30;;
19691;SDS011;42748;50.016;19.890;2023-02-01T07:13:22;12.17;;;3.20;;
19691;SDS011;42748;50.016;19.890;2023-02-01T07:15:49;9.77;;;2.97;;
19691;SDS011;42748;50.016;19.890;2023-02-01T07:18:17;14.37;;;3.50;;
19691;SDS011;42748;50.016;19.890;2023-02-01T07:20:46;10.73;;;3.50;;
19691;SDS011;42748;50.016;19.890;2023-02-01T07:23:16;6.83;;;2.50;;
19691;SDS011;42748;50.016;19.890;2023-02-01T07:25:44;7.77;;;2.83;;
19691;SDS011;42748;50.016;19.890;2023-02-01T07:28:11;8.87;;;2.70;;
19691;SDS011;42748;50.016;19.890;2023-02-01T07:30:38;10.90;;;3.00;;
19691;SDS011;42748;50.016;19.890;2023-02-01T07:33:06;9.83;;;2.50;;
19691;SDS011;42748;50.016;19.890;2023-02-01T07:35:33;10.63;;;2.90;;
19691;SDS011;42748;50.016;19.890;2023-02-01T07:38:01;13.57;;;2.60;;
19691;SDS011;42748;50.016;19.890;2023-02-01T07:40:28;12.67;;;2.90;;
19691;SDS011;42748;50.016;19.890;2023-02-01T07:42:56;9.30;;;2.30;;
19691;SDS011;42748;50.016;19.890;2023-02-01T07:45:24;14.37;;;3.00;;
19691;SDS011;42748;50.016;19.890;2023-02-01T07:47:51;8.80;;;2.80;;
19691;SDS011;42748;50.016;19.890;2023-02-01T07:50:19;13.83;;;2.80;;
19691;SDS011;42748;50.016;19.890;2023-02-01T07:52:48;12.50;;;3.27;;
19691;SDS011;42748;50.016;19.890;2023-02-01T07:55:14;8.30;;;3.10;;
19691;SDS011;42748;50.016;19.890;2023-02-01T07:57:42;10.93;;;2.77;;
19691;SDS011;42748;50.016;19.890;2023-02-01T08:00:09;10.07;;;3.20;;
19691;SDS011;42748;50.016;19.890;2023-02-01T08:02:57;9.17;;;3.20;;
19691;SDS011;42748;50.016;19.890;2023-02-01T08:05:25;11.43;;;3.00;;
19691;SDS011;42748;50.016;19.890;2023-02-01T08:07:52;11.33;;;3.07;;
19691;SDS011;42748;50.016;19.890;2023-02-01T08:10:19;8.70;;;2.73;;
19691;SDS011;42748;50.016;19.890;2023-02-01T08:12:47;7.43;;;3.30;;
19691;SDS011;42748;50.016;19.890;2023-02-01T08:15:15;9.67;;;3.07;;
19691;SDS011;42748;50.016;19.890;2023-02-01T08:17:48;11.17;;;3.10;;
19691;SDS011;42748;50.016;19.890;2023-02-01T08:20:17;10.07;;;3.23;;
19691;SDS011;42748;50.016;19.890;2023-02-01T08:22:45;9.80;;;3.20;;
19691;SDS011;42748;50.016;19.890;2023-02-01T08:25:12;10.40;;;3.63;;
19691;SDS011;42748;50.016;19.890;2023-02-01T08:27:39;9.13;;;2.67;;
19691;SDS011;42748;50.016;19.890;2023-02-01T08:30:06;11.50;;;3.10;;
19691;SDS011;42748;50.016;19.890;2023-02-01T08:32:35;7.73;;;3.30;;
19691;SDS011;42748;50.016;19.890;2023-02-01T08:35:02;8.77;;;2.50;;
19691;SDS011;42748;50.016;19.890;2023-02-01T08:37:30;10.13;;;3.07;;
19691;SDS011;42748;50.016;19.890;2023-02-01T08:39:58;12.03;;;3.83;;
19691;SDS011;42748;50.016;19.890;2023-02-01T08:42:25;10.10;;;2.80;;
19691;SDS011;42748;50.016;19.890;2023-02-01T08:45:11;8.30;;;3.03;;
19691;SDS011;42748;50.016;19.890;2023-02-01T08:47:38;10.43;;;3.60;;
19691;SDS011;42748;50.016;19.890;2023-02-01T08:50:05;7.77;;;3.10;;
19691;SDS011;42748;50.016;19.890;2023-02-01T08:52:35;8.67;;;3.37;;
19691;SDS011;42748;50.016;19.890;2023-02-01T08:55:04;10.07;;;3.80;;
19691;SDS011;42748;50.016;19.890;2023-02-01T08:57:32;8.27;;;3.80;;
19691;SDS011;42748;50.016;19.890;2023-02-01T09:00:00;8.23;;;3.07;;
19691;SDS011;42748;50.016;19.890;2023-02-01T09:02:27;9.30;;;3.30;;
19691;SDS011;42748;50.016;19.890;2023-02-01T09:04:55;7.97;;;3.17;;
19691;SDS011;42748;50.016;19.890;2023-02-01T09:07:24;10.67;;;3.80;;
19691;SDS011;42748;50.016;19.890;2023-02-01T09:09:51;9.60;;;4.13;;
19691;SDS011;42748;50.016;19.890;2023-02-01T09:12:20;15.20;;;3.73;;
19691;SDS011;42748;50.016;19.890;2023-02-01T09:14:48;11.30;;;4.23;;
19691;SDS011;42748;50.016;19.890;2023-02-01T09:17:15;10.73;;;4.00;;
19691;SDS011;42748;50.016;19.890;2023-02-01T09:19:42;13.20;;;4.03;;
19691;SDS011;42748;50.016;19.890;2023-02-01T09:22:09;10.20;;;3.00;;
19691;SDS011;42748;50.016;19.890;2023-02-01T09:24:36;10.20;;;3.80;;
19691;SDS011;42748;50.016;19.890;2023-02-01T09:27:03;10.80;;;4.20;;
19691;SDS011;42748;50.016;19.890;2023-02-01T09:29:31;8.93;;;3.77;;
19691;SDS011;42748;50.016;19.890;2023-02-01T09:31:58;8.37;;;3.70;;
19691;SDS011;42748;50.016;19.890;2023-02-01T09:34:30;10.03;;;3.67;;
19691;SDS011;42748;50.016;19.890;2023-02-01T09:36:57;7.33;;;3.73;;
19691;SDS011;42748;50.016;19.890;2023-02-01T09:39:25;12.97;;;3.93;;
19691;SDS011;42748;50.016;19.890;2023-02-01T09:47:17;12.87;;;3.93;;
19691;SDS011;42748;50.016;19.890;2023-02-01T09:49:56;10.53;;;3.60;;
19691;SDS011;42748;50.016;19.890;2023-02-01T09:52:34;9.57;;;3.30;;
19691;SDS011;42748;50.016;19.890;2023-02-01T09:55:10;12.10;;;3.30;;
19691;SDS011;42748;50.016;19.890;2023-02-01T10:00:33;6.23;;;2.77;;
19691;SDS011;42748;50.016;19.890;2023-02-01T10:03:05;7.77;;;3.17;;
19691;SDS011;42748;50.016;19.890;2023-02-01T10:11:00;8.20;;;2.97;;
19691;SDS011;42748;50.016;19.890;2023-02-01T10:13:46;9.33;;;3.17;;
19691;SDS011;42748;50.016;19.890;2023-02-01T10:22:34;11.80;;;4.33;;
19691;SDS011;42748;50.016;19.890;2023-02-01T10:25:31;10.90;;;3.90;;
19691;SDS011;42748;50.016;19.890;2023-02-01T10:28:16;10.10;;;3.93;;
19691;SDS011;42748;50.016;19.890;2023-02-01T10:30:45;12.13;;;4.07;;
19691;SDS011;42748;50.016;19.890;2023-02-01T10:33:24;9.43;;;3.73;;
19691;SDS011;42748;50.016;19.890;2023-02-01T10:35:55;9.53;;;3.90;;
19691;SDS011;42748;50.016;19.890;2023-02-01T10:38:47;8.83;;;3.60;;
19691;SDS011;42748;50.016;19.890;2023-02-01T10:41:16;11.60;;;3.77;;
19691;SDS011;42748;50.016;19.890;2023-02-01T10:43:48;10.43;;;4.00;;
19691;SDS011;42748;50.016;19.890;2023-02-01T10:46:19;10.50;;;4.10;;
19691;SDS011;42748;50.016;19.890;2023-02-01T10:48:48;9.47;;;3.93;;
19691;SDS011;42748;50.016;19.890;2023-02-01T10:51:24;11.00;;;4.40;;
19691;SDS011;42748;50.016;19.890;2023-02-01T10:54:11;12.17;;;3.77;;
19691;SDS011;42748;50.016;19.890;2023-02-01T10:56:48;13.37;;;5.03;;
19691;SDS011;42748;50.016;19.890;2023-02-01T10:59:17;12.80;;;4.67;;
19691;SDS011;42748;50.016;19.890;2023-02-01T11:01:57;12.57;;;4.60;;
19691;SDS011;42748;50.016;19.890;2023-02-01T11:04:33;13.97;;;5.07;;
19691;SDS011;42748;50.016;19.890;2023-02-01T11:07:18;12.43;;;4.73;;
19691;SDS011;42748;50.016;19.890;2023-02-01T11:09:51;13.00;;;4.83;;
19691;SDS011;42748;50.016;19.890;2023-02-01T11:14:57;11.67;;;4.87;;
19691;SDS011;42748;50.016;19.890;2023-02-01T11:17:33;17.00;;;4.73;;
19691;SDS011;42748;50.016;19.890;2023-02-01T11:20:04;11.40;;;4.83;;
19691;SDS011;42748;50.016;19.890;2023-02-01T11:22:47;11.10;;;4.47;;
19691;SDS011;42748;50.016;19.890;2023-02-01T11:25:19;18.50;;;4.83;;
19691;SDS011;42748;50.016;19.890;2023-02-01T11:27:48;10.93;;;4.90;;
19691;SDS011;42748;50.016;19.890;2023-02-01T11:30:37;9.60;;;3.50;;
19691;SDS011;42748;50.016;19.890;2023-02-01T11:33:08;11.63;;;5.07;;
19691;SDS011;42748;50.016;19.890;2023-02-01T11:35:41;11.03;;;4.33;;
19691;SDS011;42748;50.016;19.890;2023-02-01T11:38:28;11.23;;;4.80;;
19691;SDS011;42748;50.016;19.890;2023-02-01T11:43:56;12.47;;;4.60;;
19691;SDS011;42748;50.016;19.890;2023-02-01T11:46:30;12.93;;;4.70;;
19691;SDS011;42748;50.016;19.890;2023-02-01T11:52:06;15.13;;;4.97;;
19691;SDS011;42748;50.016;19.890;2023-02-01T12:17:03;15.17;;;5.77;;
19691;SDS011;42748;50.016;19.890;2023-02-01T12:22:45;18.03;;;5.07;;
19691;SDS011;42748;50.016;19.890;2023-02-01T12:39:02;9.83;;;4.60;;
19691;SDS011;42748;50.016;19.890;2023-02-01T12:41:49;13.17;;;4.77;;
19691;SDS011;42748;50.016;19.890;2023-02-01T12:49:59;11.93;;;5.20;;
19691;SDS011;42748;50.016;19.890;2023-02-01T12:52:30;13.40;;;4.67;;
19691;SDS011;42748;50.016;19.890;2023-02-01T12:58:05;13.43;;;5.63;;
19691;SDS011;42748;50.016;19.890;2023-02-01T13:00:44;13.53;;;5.10;;
19691;SDS011;42748;50.016;19.890;2023-02-01T13:06:21;12.40;;;4.90;;
19691;SDS011;42748;50.016;19.890;2023-02-01T13:09:03;13.43;;;5.03;;
19691;SDS011;42748;50.016;19.890;2023-02-01T13:11:51;11.43;;;5.27;;
19691;SDS011;42748;50.016;19.890;2023-02-01T13:17:18;12.10;;;4.87;;
19691;SDS011;42748;50.016;19.890;2023-02-01T13:19:57;11.00;;;5.40;;
19691;SDS011;42748;50.016;19.890;2023-02-01T13:22:39;10.67;;;4.37;;
19691;SDS011;42748;50.016;19.890;2023-02-01T13:27:37;10.57;;;4.90;;
19691;SDS011;42748;50.016;19.890;2023-02-01T13:30:06;13.60;;;5.17;;
19691;SDS011;42748;50.016;19.890;2023-02-01T13:41:58;13.00;;;5.17;;
19691;SDS011;42748;50.016;19.890;2023-02-01T13:44:45;10.53;;;4.63;;
19691;SDS011;42748;50.016;19.890;2023-02-01T13:47:24;11.87;;;4.93;;
19691;SDS011;42748;50.016;19.890;2023-02-01T13:49:59;9.87;;;4.70;;
19691;SDS011;42748;50.016;19.890;2023-02-01T13:57:51;10.13;;;4.33;;
19691;SDS011;42748;50.016;19.890;2023-02-01T14:00:34;9.77;;;4.80;;
19691;SDS011;42748;50.016;19.890;2023-02-01T14:13:37;9.63;;;4.77;;
19691;SDS011;42748;50.016;19.890;2023-02-01T14:24:01;9.73;;;3.90;;
19691;SDS011;42748;50.016;19.890;2023-02-01T14:26:48;11.97;;;5.20;;
19691;SDS011;42748;50.016;19.890;2023-02-01T14:37:11;10.77;;;4.60;;
19691;SDS011;42748;50.016;19.890;2023-02-01T14:58:40;5.97;;;3.63;;
19691;SDS011;42748;50.016;19.890;2023-02-01T15:01:32;6.30;;;3.23;;
19691;SDS011;42748;50.016;19.890;2023-02-01T15:04:03;6.63;;;4.20;;
19691;SDS011;42748;50.016;19.890;2023-02-01T15:06:44;8.67;;;4.83;;
19691;SDS011;42748;50.016;19.890;2023-02-01T15:14:38;11.47;;;5.40;;
19691;SDS011;42748;50.016;19.890;2023-02-01T15:17:23;9.87;;;5.30;;
19691;SDS011;42748;50.016;19.890;2023-02-01T15:19:58;11.97;;;5.80;;
19691;SDS011;42748;50.016;19.890;2023-02-01T15:22:28;10.47;;;5.37;;
19691;SDS011;42748;50.016;19.890;2023-02-01T15:24:58;9.23;;;5.20;;
19691;SDS011;42748;50.016;19.890;2023-02-01T15:27:26;14.63;;;6.53;;
19691;SDS011;42748;50.016;19.890;2023-02-01T15:30:04;14.20;;;5.37;;
19691;SDS011;42748;50.016;19.890;2023-02-01T15:32:46;15.17;;;7.40;;
19691;SDS011;42748;50.016;19.890;2023-02-01T15:43:50;15.57;;;8.43;;
19691;SDS011;42748;50.016;19.890;2023-02-01T15:46:43;10.03;;;4.33;;
19691;SDS011;42748;50.016;19.890;2023-02-01T15:49:29;17.97;;;8.27;;
19691;SDS011;42748;50.016;19.890;2023-02-01T15:52:00;17.77;;;9.20;;
19691;SDS011;42748;50.016;19.890;2023-02-01T15:54:32;21.00;;;10.13;;
19691;SDS011;42748;50.016;19.890;2023-02-01T15:57:08;14.70;;;7.10;;
19691;SDS011;42748;50.016;19.890;2023-02-01T15:59:43;17.80;;;9.30;;
19691;SDS011;42748;50.016;19.890;2023-02-01T16:02:28;21.70;;;11.00;;
19691;SDS011;42748;50.016;19.890;2023-02-01T16:05:02;18.07;;;9.70;;
19691;SDS011;42748;50.016;19.890;2023-02-01T16:07:31;19.70;;;9.30;;
19691;SDS011;42748;50.016;19.890;2023-02-01T16:10:00;16.07;;;7.77;;
19691;SDS011;42748;50.016;19.890;2023-02-01T16:12:45;18.60;;;9.70;;
19691;SDS011;42748;50.016;19.890;2023-02-01T16:15:14;18.73;;;9.20;;
19691;SDS011;42748;50.016;19.890;2023-02-01T16:17:41;20.87;;;10.43;;
19691;SDS011;42748;50.016;19.890;2023-02-01T16:20:10;19.80;;;9.83;;
19691;SDS011;42748;50.016;19.890;2023-02-01T16:22:38;16.23;;;9.63;;
19691;SDS011;42748;50.016;19.890;2023-02-01T16:25:05;19.17;;;9.50;;
19691;SDS011;42748;50.016;19.890;2023-02-01T16:27:32;22.03;;;11.00;;
19691;SDS011;42748;50.016;19.890;2023-02-01T16:29:59;17.63;;;9.47;;
19691;SDS011;42748;50.016;19.890;2023-02-01T16:32:26;22.43;;;10.13;;
19691;SDS011;42748;50.016;19.890;2023-02-01T16:34:53;18.13;;;9.60;;
19691;SDS011;42748;50.016;19.890;2023-02-01T16:37:24;19.03;;;10.03;;
19691;SDS011;42748;50.016;19.890;2023-02-01T16:39:52;17.87;;;10.10;;
19691;SDS011;42748;50.016;19.890;2023-02-01T16:42:19;17.83;;;10.30;;
19691;SDS011;42748;50.016;19.890;2023-02-01T16:44:46;23.00;;;11.03;;
19691;SDS011;42748;50.016;19.890;2023-02-01T16:47:17;21.40;;;11.33;;
19691;SDS011;42748;50.016;19.890;2023-02-01T16:49:49;19.30;;;10.20;;
19691;SDS011;42748;50.016;19.890;2023-02-01T16:52:21;22.50;;;10.57;;
19691;SDS011;42748;50.016;19.890;2023-02-01T16:54:50;20.93;;;11.17;;
19691;SDS011;42748;50.016;19.890;2023-02-01T16:57:18;23.20;;;11.23;;
19691;SDS011;42748;50.016;19.890;2023-02-01T16:59:49;22.70;;;10.90;;
19691;SDS011;42748;50.016;19.890;2023-02-01T17:02:17;20.77;;;10.77;;
19691;SDS011;42748;50.016;19.890;2023-02-01T17:04:45;19.83;;;10.23;;
19691;SDS011;42748;50.016;19.890;2023-02-01T17:07:15;22.77;;;10.63;;
19691;SDS011;42748;50.016;19.890;2023-02-01T17:09:52;22.73;;;11.23;;
19691;SDS011;42748;50.016;19.890;2023-02-01T17:12:26;23.07;;;10.93;;
19691;SDS011;42748;50.016;19.890;2023-02-01T17:14:57;21.43;;;11.30;;
19691;SDS011;42748;50.016;19.890;2023-02-01T17:17:26;24.90;;;10.97;;
19691;SDS011;42748;50.016;19.890;2023-02-01T17:20:04;25.43;;;12.20;;
19691;SDS011;42748;50.016;19.890;2023-02-01T17:22:32;23.77;;;11.07;;
19691;SDS011;42748;50.016;19.890;2023-02-01T17:25:00;23.83;;;12.23;;
19691;SDS011;42748;50.016;19.890;2023-02-01T17:27:27;19.57;;;10.07;;
19691;SDS011;42748;50.016;19.890;2023-02-01T17:29:55;26.27;;;12.73;;
19691;SDS011;42748;50.016;19.890;2023-02-01T17:32:23;26.63;;;13.03;;
19691;SDS011;42748;50.016;19.890;2023-02-01T17:34:51;28.47;;;12.93;;
19691;SDS011;42748;50.016;19.890;2023-02-01T17:37:28;25.67;;;12.13;;
19691;SDS011;42748;50.016;19.890;2023-02-01T17:39:57;26.53;;;12.67;;
19691;SDS011;42748;50.016;19.890;2023-02-01T17:42:25;23.93;;;11.93;;
19691;SDS011;42748;50.016;19.890;2023-02-01T17:44:55;26.33;;;12.00;;
19691;SDS011;42748;50.016;19.890;2023-02-01T17:47:27;24.33;;;11.77;;
19691;SDS011;42748;50.016;19.890;2023-02-01T17:49:55;24.70;;;12.20;;
19691;SDS011;42748;50.016;19.890;2023-02-01T17:52:23;23.43;;;10.60;;
19691;SDS011;42748;50.016;19.890;2023-02-01T17:54:51;22.47;;;10.00;;
19691;SDS011;42748;50.016;19.890;2023-02-01T17:57:19;22.13;;;10.10;;
19691;SDS011;42748;50.016;19.890;2023-02-01T17:59:47;23.53;;;9.93;;
19691;SDS011;42748;50.016;19.890;2023-02-01T18:02:18;21.30;;;9.43;;